SAS2545 ESSA-EGPH
Flight info
| Callsign | SAS2545 |
|---|---|
| Flight time | N/A |
| Altitude | 36000 |
| Route | ARS N623 IBGAX DCT NIBNO DCT KLONN DCT ADN DCT NAXIL/N0394F240 P600 PTH |
| Aircraft | A321/M-SDE3FGHIRWY/LB1 |
Departure
| Time | N/A |
|---|---|
| Airport | Stockholm-Arlanda Airport (ESSA) |
Arrival
| Time | 2026-05-07 13:34 |
|---|---|
| Airport | Edinburgh Airport (EGPH) |
| Time | Latitude | Longitude | Altitude | Speed | Heading |
|---|---|---|---|---|---|
| 2026-05-07 13:04 | 57.49034 | -1.50023 | 35990 ft | 395 kts | 246° |
| 2026-05-07 13:04 | 57.47951 | -1.54720 | 35999 ft | 396 kts | 246° |
| 2026-05-07 13:04 | 57.45782 | -1.64116 | 36004 ft | 396 kts | 246° |
| 2026-05-07 13:05 | 57.43604 | -1.73500 | 35997 ft | 396 kts | 246° |
| 2026-05-07 13:05 | 57.41425 | -1.82814 | 35742 ft | 396 kts | 245° |
| 2026-05-07 13:06 | 57.40325 | -1.87492 | 35485 ft | 395 kts | 245° |
| 2026-05-07 13:06 | 57.39227 | -1.92165 | 35218 ft | 395 kts | 245° |
| 2026-05-07 13:06 | 57.38133 | -1.96821 | 34975 ft | 395 kts | 245° |
| 2026-05-07 13:06 | 57.36829 | -2.01280 | 34729 ft | 393 kts | 232° |
| 2026-05-07 13:07 | 57.34921 | -2.04887 | 34464 ft | 395 kts | 220° |
| 2026-05-07 13:07 | 57.32791 | -2.08114 | 34222 ft | 397 kts | 220° |
| 2026-05-07 13:07 | 57.30643 | -2.11330 | 33943 ft | 397 kts | 220° |
| 2026-05-07 13:07 | 57.28478 | -2.14558 | 32863 ft | 405 kts | 220° |
| 2026-05-07 13:08 | 57.26259 | -2.17858 | 31725 ft | 413 kts | 220° |
| 2026-05-07 13:08 | 57.24003 | -2.21209 | 30702 ft | 418 kts | 220° |
| 2026-05-07 13:08 | 57.21749 | -2.24559 | 30159 ft | 412 kts | 220° |
| 2026-05-07 13:08 | 57.19554 | -2.27820 | 29569 ft | 406 kts | 220° |
| 2026-05-07 13:09 | 57.17374 | -2.31058 | 29034 ft | 399 kts | 220° |
| 2026-05-07 13:09 | 57.15233 | -2.34233 | 28501 ft | 392 kts | 220° |
| 2026-05-07 13:09 | 57.13153 | -2.37310 | 28010 ft | 385 kts | 220° |
| 2026-05-07 13:09 | 57.11055 | -2.40409 | 27451 ft | 379 kts | 220° |
| 2026-05-07 13:10 | 57.09040 | -2.43382 | 26955 ft | 372 kts | 220° |
| 2026-05-07 13:10 | 57.07035 | -2.46341 | 26449 ft | 366 kts | 220° |
| 2026-05-07 13:10 | 57.05063 | -2.49244 | 25961 ft | 362 kts | 220° |
| 2026-05-07 13:10 | 57.03104 | -2.52121 | 25477 ft | 359 kts | 220° |
| 2026-05-07 13:11 | 57.01173 | -2.54949 | 24996 ft | 356 kts | 220° |
| 2026-05-07 13:11 | 56.99228 | -2.57796 | 24516 ft | 354 kts | 220° |
| 2026-05-07 13:11 | 56.97305 | -2.60610 | 24043 ft | 352 kts | 220° |
| 2026-05-07 13:11 | 56.95403 | -2.63396 | 23576 ft | 350 kts | 220° |
| 2026-05-07 13:12 | 56.93508 | -2.66170 | 23082 ft | 348 kts | 220° |
| 2026-05-07 13:12 | 56.91620 | -2.68930 | 22634 ft | 346 kts | 220° |
| 2026-05-07 13:12 | 56.89744 | -2.71667 | 22203 ft | 344 kts | 220° |
| 2026-05-07 13:12 | 56.87872 | -2.74395 | 21775 ft | 343 kts | 219° |
| 2026-05-07 13:13 | 56.86006 | -2.77103 | 21355 ft | 341 kts | 219° |
| 2026-05-07 13:13 | 56.84147 | -2.79793 | 20949 ft | 340 kts | 219° |
| 2026-05-07 13:13 | 56.82299 | -2.82466 | 20531 ft | 338 kts | 219° |
| 2026-05-07 13:13 | 56.80460 | -2.85126 | 20092 ft | 337 kts | 219° |
| 2026-05-07 13:14 | 56.78619 | -2.87792 | 19701 ft | 338 kts | 219° |
| 2026-05-07 13:14 | 56.76801 | -2.90419 | 19281 ft | 337 kts | 219° |
| 2026-05-07 13:14 | 56.74967 | -2.93065 | 18858 ft | 334 kts | 219° |
| 2026-05-07 13:14 | 56.73151 | -2.95684 | 18418 ft | 332 kts | 219° |
| 2026-05-07 13:15 | 56.71347 | -2.98284 | 17935 ft | 330 kts | 219° |
| 2026-05-07 13:15 | 56.69552 | -3.00861 | 17480 ft | 327 kts | 219° |
| 2026-05-07 13:15 | 56.67767 | -3.03414 | 17032 ft | 325 kts | 219° |
| 2026-05-07 13:15 | 56.65995 | -3.05946 | 16588 ft | 322 kts | 218° |
| 2026-05-07 13:16 | 56.64243 | -3.08448 | 16138 ft | 319 kts | 218° |
| 2026-05-07 13:16 | 56.62508 | -3.10928 | 15691 ft | 316 kts | 218° |
| 2026-05-07 13:16 | 56.60788 | -3.13387 | 15241 ft | 313 kts | 218° |
| 2026-05-07 13:16 | 56.59083 | -3.15822 | 14789 ft | 311 kts | 218° |
| 2026-05-07 13:17 | 56.57390 | -3.18233 | 14353 ft | 308 kts | 218° |
| 2026-05-07 13:17 | 56.55703 | -3.20630 | 13905 ft | 306 kts | 218° |
| 2026-05-07 13:17 | 56.54037 | -3.22989 | 13434 ft | 303 kts | 218° |
| 2026-05-07 13:17 | 56.52383 | -3.25325 | 12979 ft | 301 kts | 218° |
| 2026-05-07 13:18 | 56.50740 | -3.27647 | 12553 ft | 299 kts | 218° |
| 2026-05-07 13:18 | 56.49105 | -3.29960 | 12109 ft | 297 kts | 218° |
| 2026-05-07 13:18 | 56.47458 | -3.32189 | 11674 ft | 295 kts | 212° |
| 2026-05-07 13:18 | 56.45601 | -3.33753 | 11225 ft | 295 kts | 199° |
| 2026-05-07 13:19 | 56.43589 | -3.34425 | 10776 ft | 295 kts | 185° |
| 2026-05-07 13:19 | 56.41549 | -3.34164 | 10462 ft | 292 kts | 172° |
| 2026-05-07 13:19 | 56.39654 | -3.33047 | 10286 ft | 284 kts | 159° |
| 2026-05-07 13:19 | 56.37876 | -3.31573 | 9985 ft | 279 kts | 160° |
| 2026-05-07 13:20 | 56.36123 | -3.30125 | 9830 ft | 276 kts | 159° |
| 2026-05-07 13:20 | 56.34397 | -3.28706 | 9695 ft | 276 kts | 159° |
| 2026-05-07 13:20 | 56.32648 | -3.27273 | 9556 ft | 276 kts | 160° |
| 2026-05-07 13:20 | 56.30879 | -3.25823 | 9328 ft | 277 kts | 160° |
| 2026-05-07 13:21 | 56.29144 | -3.24400 | 8829 ft | 277 kts | 159° |
| 2026-05-07 13:21 | 56.27404 | -3.22965 | 8364 ft | 276 kts | 160° |
| 2026-05-07 13:21 | 56.25660 | -3.21532 | 8006 ft | 272 kts | 159° |
| 2026-05-07 13:21 | 56.23954 | -3.20129 | 7776 ft | 262 kts | 159° |
| 2026-05-07 13:22 | 56.22361 | -3.18808 | 7303 ft | 248 kts | 158° |
| 2026-05-07 13:22 | 56.21034 | -3.16919 | 6898 ft | 246 kts | 130° |
| 2026-05-07 13:22 | 56.20433 | -3.14049 | 6622 ft | 250 kts | 98° |
| 2026-05-07 13:22 | 56.20536 | -3.10913 | 6347 ft | 253 kts | 86° |
| 2026-05-07 13:23 | 56.20778 | -3.07793 | 6134 ft | 252 kts | 85° |
| 2026-05-07 13:23 | 56.20950 | -3.05729 | 6046 ft | 252 kts | 84° |
| 2026-05-07 13:23 | 56.21212 | -3.02624 | 5911 ft | 252 kts | 85° |
| 2026-05-07 13:23 | 56.21477 | -2.99506 | 5787 ft | 252 kts | 85° |
| 2026-05-07 13:24 | 56.21741 | -2.96398 | 5653 ft | 251 kts | 84° |
| 2026-05-07 13:24 | 56.21903 | -2.93294 | 5512 ft | 247 kts | 98° |
| 2026-05-07 13:24 | 56.21624 | -2.90282 | 5390 ft | 243 kts | 108° |
| 2026-05-07 13:24 | 56.21304 | -2.87286 | 5262 ft | 244 kts | 104° |
| 2026-05-07 13:25 | 56.20980 | -2.84306 | 5120 ft | 241 kts | 112° |
| 2026-05-07 13:25 | 56.20138 | -2.81810 | 4993 ft | 232 kts | 139° |
| 2026-05-07 13:25 | 56.18812 | -2.80258 | 4867 ft | 227 kts | 163° |
| 2026-05-07 13:25 | 56.17279 | -2.79898 | 4737 ft | 221 kts | 187° |
| 2026-05-07 13:26 | 56.15846 | -2.80721 | 4608 ft | 216 kts | 210° |
| 2026-05-07 13:26 | 56.14742 | -2.82510 | 4466 ft | 215 kts | 232° |
| 2026-05-07 13:26 | 56.13889 | -2.84691 | 4349 ft | 212 kts | 233° |
| 2026-05-07 13:26 | 56.13048 | -2.86829 | 4229 ft | 208 kts | 233° |
| 2026-05-07 13:27 | 56.12218 | -2.88932 | 4094 ft | 206 kts | 233° |
| 2026-05-07 13:27 | 56.11395 | -2.91023 | 3970 ft | 205 kts | 233° |
| 2026-05-07 13:27 | 56.10569 | -2.93117 | 3839 ft | 206 kts | 233° |
| 2026-05-07 13:27 | 56.09745 | -2.95203 | 3710 ft | 204 kts | 233° |
| 2026-05-07 13:28 | 56.08930 | -2.97261 | 3578 ft | 200 kts | 233° |
| 2026-05-07 13:28 | 56.08115 | -2.99268 | 3461 ft | 198 kts | 228° |
| 2026-05-07 13:28 | 56.07237 | -3.01167 | 3329 ft | 198 kts | 231° |
| 2026-05-07 13:28 | 56.06463 | -3.03214 | 3200 ft | 198 kts | 236° |
| 2026-05-07 13:29 | 56.05742 | -3.05312 | 3094 ft | 197 kts | 237° |
| 2026-05-07 13:29 | 56.05035 | -3.07416 | 3006 ft | 198 kts | 237° |
| 2026-05-07 13:29 | 56.04345 | -3.09479 | 2998 ft | 192 kts | 237° |
| 2026-05-07 13:29 | 56.03664 | -3.11513 | 3002 ft | 189 kts | 236° |
| 2026-05-07 13:30 | 56.02992 | -3.13518 | 2945 ft | 187 kts | 236° |
| 2026-05-07 13:30 | 56.02325 | -3.15505 | 2751 ft | 185 kts | 237° |
| 2026-05-07 13:30 | 56.01675 | -3.17442 | 2522 ft | 179 kts | 236° |
| 2026-05-07 13:30 | 56.01047 | -3.19314 | 2280 ft | 173 kts | 236° |
| 2026-05-07 13:31 | 56.00430 | -3.21147 | 2050 ft | 170 kts | 236° |
| 2026-05-07 13:31 | 55.99837 | -3.22911 | 1836 ft | 159 kts | 236° |
| 2026-05-07 13:31 | 55.99292 | -3.24534 | 1618 ft | 147 kts | 236° |
| 2026-05-07 13:31 | 55.98769 | -3.26084 | 1413 ft | 144 kts | 235° |
| 2026-05-07 13:32 | 55.98266 | -3.27575 | 1231 ft | 137 kts | 234° |
| 2026-05-07 13:32 | 55.97789 | -3.28991 | 1038 ft | 131 kts | 235° |
| 2026-05-07 13:32 | 55.97314 | -3.30395 | 838 ft | 131 kts | 234° |
| 2026-05-07 13:32 | 55.96836 | -3.31812 | 674 ft | 131 kts | 235° |
| 2026-05-07 13:33 | 55.96358 | -3.33224 | 478 ft | 132 kts | 236° |
| 2026-05-07 13:33 | 55.95898 | -3.34596 | 284 ft | 128 kts | 235° |
| 2026-05-07 13:33 | 55.95437 | -3.35967 | 126 ft | 127 kts | 234° |
| 2026-05-07 13:33 | 55.95030 | -3.37150 | 106 ft | 92 kts | 239° |
| 2026-05-07 13:34 | 55.94791 | -3.37854 | 116 ft | 38 kts | 239° |
| 2026-05-07 13:34 | 55.94631 | -3.37993 | 112 ft | 16 kts | 150° |
| 2026-05-07 13:34 | 55.94608 | -3.37831 | 113 ft | 17 kts | 59° |
| 2026-05-07 13:35 | 55.94669 | -3.37651 | 113 ft | 18 kts | 59° |
| 2026-05-07 13:35 | 55.94743 | -3.37432 | 110 ft | 22 kts | 58° |
| 2026-05-07 13:35 | 55.94831 | -3.37169 | 103 ft | 27 kts | 59° |
| 2026-05-07 13:35 | 55.94912 | -3.36933 | 104 ft | 18 kts | 58° |
| 2026-05-07 13:36 | 55.94880 | -3.36787 | 105 ft | 15 kts | 160° |
| 2026-05-07 13:36 | 55.94802 | -3.36734 | 105 ft | 10 kts | 105° |
| 2026-05-07 13:36 | 55.94802 | -3.36639 | 106 ft | 2 kts | 89° |
| 2026-05-07 13:36 | 55.94802 | -3.36631 | 106 ft | 0 kts | 89° |